createdAt,value
2022-10-09T00:02:02.848Z,48.90
2022-10-09T00:05:05.663Z,50.80
2022-10-09T00:08:07.832Z,51.22
2022-10-09T00:11:16.120Z,48.03
2022-10-09T00:14:18.927Z,48.00
2022-10-09T00:17:21.920Z,54.07
2022-10-09T00:20:25.116Z,56.22
2022-10-09T00:23:28.715Z,62.95
2022-10-09T00:26:32.633Z,63.05
2022-10-09T00:29:35.644Z,60.47
2022-10-09T00:32:38.512Z,59.70
2022-10-09T00:35:41.605Z,59.65
2022-10-09T00:38:43.806Z,57.92
2022-10-09T00:41:45.978Z,56.33
2022-10-09T00:44:51.584Z,59.60
2022-10-09T00:47:57.087Z,62.43
2022-10-09T00:51:00.200Z,61.17
2022-10-09T00:54:04.664Z,63.40
2022-10-09T00:57:07.506Z,62.90
2022-10-09T01:00:13.719Z,63.07
2022-10-09T01:03:15.871Z,61.50
2022-10-09T01:06:31.073Z,65.53
2022-10-09T01:09:41.183Z,65.15
2022-10-09T01:12:49.049Z,58.05
2022-10-09T01:16:31.641Z,61.17
2022-10-09T01:19:56.033Z,59.67
2022-10-09T01:23:25.649Z,56.55
2022-10-09T01:26:46.868Z,48.65
2022-10-09T01:29:54.271Z,47.75
2022-10-09T01:32:58.169Z,52.23
2022-10-09T01:36:02.393Z,48.40
2022-10-09T01:39:07.434Z,49.25
2022-10-09T01:42:12.672Z,47.17
2022-10-09T01:45:16.895Z,46.10
2022-10-09T01:48:25.527Z,49.47
2022-10-09T01:51:31.577Z,45.17
2022-10-09T01:54:59.251Z,50.13
2022-10-09T01:58:05.006Z,50.92
2022-10-09T02:01:12.752Z,51.80
2022-10-09T02:04:17.440Z,51.30
2022-10-09T02:07:20.937Z,47.13
2022-10-09T02:10:24.757Z,51.05
2022-10-09T02:13:28.259Z,52.30
2022-10-09T02:16:42.926Z,49.08
2022-10-09T02:19:51.648Z,51.87
2022-10-09T02:22:54.779Z,42.80
2022-10-09T02:25:57.045Z,46.05
2022-10-09T02:28:59.344Z,43.47
2022-10-09T02:32:01.618Z,43.63
2022-10-09T02:35:03.974Z,43.33
2022-10-09T02:38:06.201Z,42.27
2022-10-09T02:41:08.308Z,41.60
2022-10-09T02:44:10.537Z,41.70
2022-10-09T02:47:12.701Z,38.20
2022-10-09T02:50:15.335Z,40.30
2022-10-09T02:53:18.326Z,44.40
2022-10-09T02:56:22.745Z,44.55
2022-10-09T02:59:25.844Z,38.75
2022-10-09T03:02:29.025Z,39.30
2022-10-09T03:05:32.033Z,40.50
2022-10-09T03:08:35.625Z,41.57
2022-10-09T03:11:38.626Z,49.30
2022-10-09T03:14:41.613Z,44.92
2022-10-09T03:17:44.806Z,44.60
2022-10-09T03:20:47.999Z,46.20
2022-10-09T03:23:51.401Z,48.23
2022-10-09T03:26:54.596Z,41.97
2022-10-09T03:29:59.031Z,44.20
2022-10-09T03:33:02.017Z,51.65
2022-10-09T03:36:05.622Z,47.83
2022-10-09T03:39:09.445Z,50.77
2022-10-09T03:42:12.524Z,53.70
2022-10-09T03:45:15.714Z,52.17
2022-10-09T03:48:18.917Z,45.80
2022-10-09T03:51:21.893Z,48.63
2022-10-09T03:54:24.793Z,55.60
2022-10-09T03:57:27.580Z,50.33
2022-10-09T04:00:30.129Z,50.60
2022-10-09T04:03:32.606Z,52.85
2022-10-09T04:06:34.744Z,57.13
2022-10-09T04:09:36.903Z,51.90
2022-10-09T04:12:39.068Z,54.88
2022-10-09T04:15:49.857Z,57.13
2022-10-09T04:18:51.966Z,58.28
2022-10-09T04:21:56.135Z,62.87
2022-10-09T04:24:59.323Z,60.77
2022-10-09T04:28:01.587Z,60.50
2022-10-09T04:31:04.317Z,59.90
2022-10-09T04:34:06.541Z,59.67
2022-10-09T04:37:08.654Z,55.23
2022-10-09T04:40:11.078Z,49.77
2022-10-09T04:43:13.173Z,52.53
2022-10-09T04:46:15.433Z,58.97
2022-10-09T04:49:17.889Z,62.85
2022-10-09T04:52:20.026Z,62.07
2022-10-09T04:55:22.175Z,64.80
2022-10-09T04:58:25.552Z,61.60
2022-10-09T05:01:35.555Z,59.30
2022-10-09T05:04:40.953Z,52.55
2022-10-09T05:07:43.857Z,50.67
2022-10-09T05:10:46.728Z,50.53
2022-10-09T05:13:52.587Z,52.88
2022-10-09T05:17:12.958Z,52.20
2022-10-09T05:20:17.306Z,52.85
2022-10-09T05:23:20.294Z,52.07
2022-10-09T05:26:24.208Z,57.03
2022-10-09T05:29:27.094Z,62.17
2022-10-09T05:32:30.188Z,56.90
2022-10-09T05:35:32.572Z,60.88
2022-10-09T05:38:34.975Z,62.87
2022-10-09T05:41:37.089Z,56.80
2022-10-09T05:44:39.169Z,52.28
2022-10-09T05:47:41.362Z,50.13
2022-10-09T05:50:43.507Z,52.35
2022-10-09T05:53:46.792Z,54.43
2022-10-09T05:56:48.960Z,51.57
2022-10-09T05:59:51.088Z,51.28
2022-10-09T06:02:53.492Z,48.15
2022-10-09T06:06:06.574Z,48.97
2022-10-09T06:09:10.582Z,52.77
2022-10-09T06:12:14.354Z,52.40
2022-10-09T06:15:18.696Z,59.55
2022-10-09T06:18:21.187Z,69.00
2022-10-09T06:21:23.917Z,44.65
2022-10-09T06:24:28.995Z,46.67
2022-10-09T06:27:31.431Z,33.03
2022-10-09T06:30:38.394Z,35.83
2022-10-09T06:33:42.198Z,29.35
2022-10-09T06:36:44.407Z,27.60
2022-10-09T06:39:47.211Z,29.23
2022-10-09T06:42:49.770Z,26.73
2022-10-09T06:45:52.868Z,25.55
2022-10-09T06:48:55.031Z,25.83
2022-10-09T06:51:57.148Z,27.38
2022-10-09T06:54:59.252Z,24.23
2022-10-09T06:58:01.430Z,22.43
2022-10-09T07:01:24.557Z,23.10
2022-10-09T07:04:27.025Z,24.08
2022-10-09T07:07:29.167Z,23.98
2022-10-09T07:10:31.277Z,20.60
2022-10-09T07:13:33.442Z,20.90
2022-10-09T07:16:38.665Z,21.33
2022-10-09T07:19:40.904Z,20.35
2022-10-09T07:22:43.001Z,17.10
2022-10-09T07:25:45.106Z,17.97
2022-10-09T07:28:48.141Z,17.63
2022-10-09T07:31:50.333Z,16.73
2022-10-09T07:34:52.493Z,15.20
2022-10-09T07:37:54.646Z,13.48
2022-10-09T07:41:09.845Z,14.30
2022-10-09T07:44:12.236Z,13.20
2022-10-09T07:47:14.395Z,12.65
2022-10-09T07:50:16.672Z,19.17
2022-10-09T07:53:18.802Z,12.90
2022-10-09T07:56:23.588Z,11.50
2022-10-09T07:59:25.670Z,12.03
2022-10-09T08:02:27.867Z,11.00
2022-10-09T08:05:30.377Z,11.05
2022-10-09T08:08:33.026Z,11.85
2022-10-09T08:11:35.384Z,10.97
2022-10-09T08:14:37.548Z,9.70
2022-10-09T08:17:39.895Z,10.43
2022-10-09T08:20:42.071Z,9.35
2022-10-09T08:23:44.415Z,12.18
2022-10-09T08:26:46.569Z,11.13
2022-10-09T08:29:48.727Z,9.33
2022-10-09T08:32:51.429Z,9.45
2022-10-09T08:35:54.433Z,11.15
2022-10-09T08:38:56.740Z,10.38
2022-10-09T08:42:01.639Z,9.53
2022-10-09T08:45:04.166Z,11.50
2022-10-09T08:48:13.866Z,11.18
2022-10-09T08:51:22.264Z,9.75
2022-10-09T08:54:35.745Z,9.63
2022-10-09T08:57:39.302Z,8.83
2022-10-09T09:00:55.527Z,10.83
2022-10-09T09:04:09.774Z,8.88
2022-10-09T09:07:23.990Z,11.80
2022-10-09T09:10:38.225Z,10.60
2022-10-09T09:14:18.149Z,10.17
2022-10-09T09:17:45.302Z,10.17
2022-10-09T09:20:55.741Z,9.70
2022-10-09T09:23:58.880Z,9.48
2022-10-09T09:27:04.118Z,9.63
2022-10-09T09:30:12.246Z,9.83
2022-10-09T09:33:19.904Z,8.57
2022-10-09T09:36:28.678Z,9.18
2022-10-09T09:42:57.052Z,9.27
2022-10-09T09:46:00.481Z,8.00
2022-10-09T09:49:07.056Z,8.40
2022-10-09T09:52:11.582Z,9.23
2022-10-09T09:55:25.209Z,8.63
2022-10-09T09:58:34.103Z,9.50
2022-10-09T10:01:36.343Z,11.07
2022-10-09T10:04:54.152Z,9.50
2022-10-09T10:07:57.695Z,9.23
2022-10-09T10:11:07.372Z,10.32
2022-10-09T10:14:13.537Z,10.85
2022-10-09T10:17:25.612Z,10.40
2022-10-09T10:20:29.738Z,8.40
2022-10-09T10:23:42.417Z,8.40
2022-10-09T10:26:58.155Z,9.75
2022-10-09T10:30:03.460Z,10.38
2022-10-09T10:33:19.787Z,10.57
2022-10-09T10:36:22.584Z,9.80
2022-10-09T10:39:32.179Z,10.77
2022-10-09T10:42:43.510Z,9.63
2022-10-09T10:46:18.519Z,10.60
2022-10-09T10:49:23.065Z,9.97
2022-10-09T10:52:41.013Z,9.87
2022-10-09T10:55:54.044Z,10.57
2022-10-09T10:59:12.589Z,10.77
2022-10-09T11:02:32.028Z,9.73
2022-10-09T11:05:59.223Z,9.53
2022-10-09T11:09:20.192Z,9.53
2022-10-09T11:12:47.407Z,9.90
2022-10-09T11:16:15.906Z,9.60
2022-10-09T11:19:45.952Z,9.50
2022-10-09T11:23:03.251Z,7.87
2022-10-09T11:26:24.239Z,8.50
2022-10-09T11:29:52.094Z,9.98
2022-10-09T11:33:30.806Z,11.60
2022-10-09T11:36:41.936Z,10.70
2022-10-09T11:39:44.428Z,12.17
2022-10-09T11:42:53.748Z,9.57
2022-10-09T11:46:09.659Z,12.43
2022-10-09T11:49:23.465Z,10.82
2022-10-09T11:52:45.830Z,10.15
2022-10-09T11:55:48.741Z,14.10
2022-10-09T11:59:04.552Z,10.90
2022-10-09T12:02:15.713Z,12.60
2022-10-09T12:05:19.138Z,10.70
2022-10-09T12:08:28.144Z,13.57
2022-10-09T12:11:32.474Z,12.07
2022-10-09T12:14:37.516Z,10.73
2022-10-09T12:17:50.373Z,11.30
2022-10-09T12:20:53.677Z,11.15
2022-10-09T12:23:55.971Z,10.50
2022-10-09T12:27:03.196Z,10.33
2022-10-09T12:30:18.261Z,10.13
2022-10-09T12:33:28.157Z,11.77
2022-10-09T12:36:31.468Z,9.88
2022-10-09T12:39:33.910Z,10.50
2022-10-09T12:42:36.353Z,10.70
2022-10-09T12:45:43.334Z,8.57
2022-10-09T12:48:46.275Z,10.13
2022-10-09T12:51:57.187Z,9.70
2022-10-09T12:55:01.298Z,10.73
2022-10-09T12:58:06.168Z,8.83
2022-10-09T13:01:13.614Z,9.90
2022-10-09T13:04:42.995Z,10.88
2022-10-09T13:07:52.440Z,8.60
2022-10-09T13:10:56.039Z,11.07
2022-10-09T13:13:58.750Z,10.17
2022-10-09T13:17:01.991Z,10.27
2022-10-09T13:20:24.689Z,9.85
2022-10-09T13:23:30.174Z,10.45
2022-10-09T13:26:32.345Z,11.13
2022-10-09T13:29:34.536Z,9.67
2022-10-09T13:32:36.740Z,8.87
2022-10-09T13:35:38.875Z,9.23
2022-10-09T13:38:41.181Z,10.38
2022-10-09T13:41:44.793Z,15.73
2022-10-09T13:44:47.026Z,11.50
2022-10-09T13:47:49.287Z,9.73
2022-10-09T13:50:52.091Z,9.23
2022-10-09T13:53:54.685Z,11.27
2022-10-09T13:56:56.851Z,12.27
2022-10-09T14:00:02.212Z,10.07
2022-10-09T14:03:14.248Z,9.17
2022-10-09T14:06:16.384Z,10.18
2022-10-09T14:09:18.520Z,9.52
2022-10-09T14:12:20.695Z,11.00
2022-10-09T14:15:22.832Z,12.17
2022-10-09T14:18:25.159Z,9.37
2022-10-09T14:21:27.761Z,10.68
2022-10-09T14:24:29.970Z,8.88
2022-10-09T14:27:32.166Z,9.95
2022-10-09T14:30:34.353Z,9.20
2022-10-09T14:33:36.477Z,8.73
2022-10-09T14:36:39.778Z,10.90
2022-10-09T14:39:43.803Z,9.40
2022-10-09T14:42:46.179Z,11.40
2022-10-09T14:45:48.394Z,11.77
2022-10-09T14:48:51.360Z,10.07
2022-10-09T14:51:54.340Z,8.95
2022-10-09T14:54:56.569Z,10.98
2022-10-09T14:57:58.711Z,10.30
2022-10-09T15:01:01.306Z,10.07
2022-10-09T15:04:04.813Z,10.40
2022-10-09T15:07:06.977Z,11.80
2022-10-09T15:10:09.364Z,11.00
2022-10-09T15:13:11.567Z,11.00
2022-10-09T15:16:15.509Z,11.43
2022-10-09T15:19:17.658Z,11.33
2022-10-09T15:22:19.864Z,10.60
2022-10-09T15:25:22.634Z,11.93
2022-10-09T15:28:25.552Z,12.70
2022-10-09T15:31:33.813Z,14.67
2022-10-09T15:34:40.102Z,14.40
2022-10-09T15:40:51.912Z,10.63
2022-10-09T15:44:01.446Z,11.50
2022-10-09T15:47:03.658Z,11.17
2022-10-09T15:50:06.550Z,13.33
2022-10-09T15:53:14.372Z,8.27
2022-10-09T15:56:19.133Z,9.68
2022-10-09T15:59:21.495Z,10.73
2022-10-09T16:02:23.627Z,7.97
2022-10-09T16:05:25.780Z,9.43
2022-10-09T16:08:28.675Z,9.48
2022-10-09T16:11:31.511Z,7.82
2022-10-09T16:14:33.647Z,9.35
2022-10-09T16:17:35.784Z,8.83
2022-10-09T16:20:38.587Z,11.77
2022-10-09T16:23:41.799Z,11.35
2022-10-09T16:26:44.235Z,8.20
2022-10-09T16:29:48.549Z,10.07
2022-10-09T16:32:51.689Z,9.17
2022-10-09T16:35:54.148Z,10.83
2022-10-09T16:38:57.330Z,7.78
2022-10-09T16:42:03.790Z,9.00
2022-10-09T16:45:06.597Z,7.35
2022-10-09T16:48:08.970Z,6.93
2022-10-09T16:51:13.367Z,6.40
2022-10-09T16:54:16.461Z,6.72
2022-10-09T16:57:19.453Z,7.30
2022-10-09T17:00:21.910Z,6.55
2022-10-09T17:03:24.438Z,7.63
2022-10-09T17:06:27.673Z,5.97
2022-10-09T17:09:30.615Z,7.80
2022-10-09T17:12:32.886Z,8.85
2022-10-09T17:15:35.008Z,7.93
2022-10-09T17:18:38.656Z,11.30
2022-10-09T17:21:43.117Z,7.80
2022-10-09T17:24:45.960Z,14.13
2022-10-09T17:27:48.042Z,14.00
2022-10-09T17:30:50.244Z,16.42
2022-10-09T17:33:57.711Z,10.77
2022-10-09T17:37:00.139Z,10.03
2022-10-09T17:40:02.394Z,8.93
2022-10-09T17:43:05.521Z,8.52
2022-10-09T17:46:07.799Z,10.52
2022-10-09T17:49:10.676Z,9.03
2022-10-09T17:52:12.926Z,9.23
2022-10-09T17:55:15.196Z,9.15
2022-10-09T17:58:18.558Z,7.20
2022-10-09T18:01:21.250Z,6.47
2022-10-09T18:04:23.635Z,8.50
2022-10-09T18:07:26.018Z,7.20
2022-10-09T18:10:28.308Z,6.85
2022-10-09T18:13:31.009Z,7.75
2022-10-09T18:16:37.271Z,11.05
2022-10-09T18:19:39.474Z,9.83
2022-10-09T18:22:41.615Z,10.60
2022-10-09T18:25:44.867Z,8.98
2022-10-09T18:28:48.619Z,11.65
2022-10-09T18:31:55.919Z,12.45
2022-10-09T18:34:58.296Z,11.50
2022-10-09T18:38:00.940Z,9.47
2022-10-09T18:41:04.431Z,11.25
2022-10-09T18:44:10.193Z,9.60
2022-10-09T18:47:17.212Z,14.75
2022-10-09T18:50:20.058Z,11.13
2022-10-09T18:53:22.784Z,11.90
2022-10-09T18:56:25.451Z,11.85
2022-10-09T18:59:30.365Z,11.27
2022-10-09T19:02:32.917Z,10.15
2022-10-09T19:05:35.292Z,9.57
2022-10-09T19:08:40.608Z,10.73
2022-10-09T19:11:43.282Z,12.07
2022-10-09T19:14:46.469Z,9.43
2022-10-09T19:17:49.126Z,10.32
2022-10-09T19:20:52.113Z,10.83
2022-10-09T19:23:54.851Z,9.60
2022-10-09T19:26:57.335Z,6.22
2022-10-09T19:29:59.687Z,7.43
2022-10-09T19:33:02.881Z,6.22
2022-10-09T19:36:07.412Z,5.90
2022-10-09T19:39:10.041Z,5.23
2022-10-09T19:42:12.227Z,6.25
2022-10-09T19:45:14.494Z,7.13
2022-10-09T19:48:18.534Z,5.20
2022-10-09T19:51:23.926Z,6.50
2022-10-09T19:54:26.515Z,7.60
2022-10-09T19:57:30.135Z,6.32
2022-10-09T20:00:32.530Z,5.55
2022-10-09T20:03:34.682Z,7.18
2022-10-09T20:06:41.166Z,5.80
2022-10-09T20:09:43.476Z,5.40
2022-10-09T20:12:45.623Z,5.97
2022-10-09T20:15:47.774Z,4.30
2022-10-09T20:18:49.887Z,5.70
2022-10-09T20:21:52.068Z,4.83
2022-10-09T20:24:54.227Z,5.37
2022-10-09T20:27:56.385Z,5.07
2022-10-09T20:30:59.772Z,6.40
2022-10-09T20:34:01.920Z,5.40
2022-10-09T20:37:04.187Z,5.10
2022-10-09T20:40:06.953Z,5.80
2022-10-09T20:43:09.129Z,5.18
2022-10-09T20:46:14.741Z,5.38
2022-10-09T20:49:16.910Z,4.88
2022-10-09T20:52:19.171Z,6.07
2022-10-09T20:55:21.295Z,5.90
2022-10-09T20:58:23.437Z,7.03
2022-10-09T21:01:27.921Z,5.47
2022-10-09T21:04:31.535Z,5.40
2022-10-09T21:07:33.718Z,5.27
2022-10-09T21:10:43.233Z,5.67
2022-10-09T21:13:45.885Z,5.65
2022-10-09T21:16:48.084Z,4.82
2022-10-09T21:19:50.649Z,5.45
2022-10-09T21:22:52.984Z,5.03
2022-10-09T21:25:55.305Z,5.57
2022-10-09T21:28:59.894Z,5.10
2022-10-09T21:32:02.326Z,4.32
2022-10-09T21:35:04.764Z,6.05
2022-10-09T21:38:06.937Z,4.83
2022-10-09T21:41:09.125Z,6.13
2022-10-09T21:44:11.305Z,4.80
2022-10-09T21:47:17.899Z,5.50
2022-10-09T21:50:20.019Z,4.88
2022-10-09T21:53:22.133Z,4.97
2022-10-09T21:56:24.363Z,5.77
2022-10-09T21:59:26.639Z,5.45
2022-10-09T22:02:28.835Z,6.75
2022-10-09T22:05:30.999Z,5.68
2022-10-09T22:08:33.788Z,3.83
2022-10-09T22:11:35.974Z,4.40
2022-10-09T22:14:38.134Z,6.72
2022-10-09T22:17:40.293Z,6.57
2022-10-09T22:20:45.689Z,5.22
2022-10-09T22:23:47.821Z,5.10
2022-10-09T22:26:49.934Z,5.60
2022-10-09T22:29:52.122Z,4.70
2022-10-09T22:32:54.479Z,4.95
2022-10-09T22:36:04.933Z,6.32
2022-10-09T22:39:07.244Z,4.57
2022-10-09T22:42:09.353Z,4.60
2022-10-09T22:45:11.576Z,3.90
2022-10-09T22:48:13.885Z,4.95
2022-10-09T22:51:17.096Z,4.97
2022-10-09T22:54:19.312Z,4.07
2022-10-09T22:57:21.426Z,4.17
2022-10-09T23:00:23.541Z,4.47
2022-10-09T23:03:25.634Z,4.60
2022-10-09T23:06:27.876Z,4.35
2022-10-09T23:09:31.741Z,5.77
2022-10-09T23:12:33.843Z,5.67
2022-10-09T23:15:37.105Z,6.10
2022-10-09T23:18:39.908Z,5.65
2022-10-09T23:21:43.820Z,3.88
2022-10-09T23:24:45.974Z,5.33
2022-10-09T23:27:48.076Z,5.43
2022-10-09T23:30:50.185Z,3.78
2022-10-09T23:33:52.372Z,4.40
2022-10-09T23:36:54.463Z,6.78
2022-10-09T23:39:56.643Z,4.47
2022-10-09T23:42:58.811Z,5.40
2022-10-09T23:46:03.058Z,5.07
2022-10-09T23:49:05.982Z,4.30
2022-10-09T23:52:08.361Z,5.78
2022-10-09T23:55:10.534Z,4.00
2022-10-09T23:58:17.158Z,5.23
